Thorpe, Iowa
Current Conditions -  °F | °C
As of 3:35 AM on Monday 24 Nov 2014 (Local Time) from KMXO Reporting Station
Light Rain Light Rain  
Wind Chill: 23°   Ceiling: 1000
Heat Index: 34°   Visibility: 4mi
Dew Point: 34°   Wind: 17mph
Humidity: 100%   Direction: 310°NW
Pressure: 29.19"   Gusts: 26mph
Location:  42.4689°N, 91.4531°W
Report Text: KMXO 240935Z AUTO 31015G23KT 4SM -RA BKN010 OVC017 01/01 A2919 RMK AO2
Loading
Personal Weather Stations






























Interactive Weather Map New forecast layout! Learn more

10-Day Weather Forecast

Advertisements
Track Severe Weather on mobile